Time;durP1;ratioP1;P1;durP2;ratioP2;P2;SDS_P1;SDS_P2;PMS_P1;PMS_P2;Temp;Humidity;BMP_temperature;BMP_pressure;BME280_temperature;BME280_humidity;BME280_pressure;Samples;Min_cycle;Max_cycle;Signal;HPM_P1;HPM_P2
2023/01/21 00:00:01;;;;;;;338.70;105.23;;;;;;;6.35;99.65;99145.13;341885;28;4187;-75
2023/01/21 00:00:11;;;;;;;340.88;108.05;;;;;;;6.35;99.44;99147.72;343878;28;4490;-76
2023/01/21 00:00:22;;;;;;;342.43;109.13;;;;;;;6.36;99.38;99154.63;344745;28;3174;-77
2023/01/21 00:00:32;;;;;;;344.13;110.45;;;;;;;6.37;99.32;99145.91;344899;28;1251;-76
2023/01/21 00:00:43;;;;;;;340.93;107.30;;;;;;;6.37;99.31;99150.28;345224;28;2778;-76
2023/01/21 00:00:53;;;;;;;338.52;104.65;;;;;;;6.37;99.35;99150.28;341409;28;1694;-76
2023/01/21 00:01:04;;;;;;;336.83;103.70;;;;;;;6.38;99.01;99151.97;334091;29;4533;-75
2023/01/21 00:01:14;;;;;;;340.00;105.83;;;;;;;6.38;99.38;99151.97;337835;29;3066;-75
2023/01/21 00:01:25;;;;;;;343.30;107.53;;;;;;;6.37;99.43;99143.31;336821;29;1132;-75
2023/01/21 00:01:35;;;;;;;345.00;108.80;;;;;;;6.38;99.25;99149.38;335638;29;2774;-75
2023/01/21 00:01:46;;;;;;;341.15;107.35;;;;;;;6.37;99.38;99147.66;335736;29;933;-75
2023/01/21 00:01:56;;;;;;;338.00;106.67;;;;;;;6.38;99.26;99146.78;336773;29;3623;-75
2023/01/21 00:02:06;;;;;;;336.70;106.80;;;;;;;6.37;99.34;99155.47;336022;29;4644;-75
2023/01/21 00:02:17;;;;;;;338.87;107.47;;;;;;;6.38;99.46;99149.38;335633;29;871;-75
2023/01/21 00:02:27;;;;;;;340.58;107.50;;;;;;;6.37;99.37;99150.28;337139;29;1844;-75
2023/01/21 00:02:38;;;;;;;341.47;107.80;;;;;;;6.38;99.26;99158.03;336604;29;3003;-75
2023/01/21 00:02:48;;;;;;;339.00;106.03;;;;;;;6.39;99.37;99151.06;336536;29;1399;-75
2023/01/21 00:02:58;;;;;;;337.60;105.57;;;;;;;6.37;99.08;99152.88;332405;29;3668;-75
2023/01/21 00:03:11;;;;;;;336.67;102.82;;;;;;;6.37;99.36;99145.91;332464;29;4506;-75
2023/01/21 00:03:22;;;;;;;339.27;104.78;;;;;;;6.39;98.84;99149.31;337469;29;1719;-76
2023/01/21 00:03:32;;;;;;;340.07;106.30;;;;;;;6.39;98.88;99154.53;337080;29;818;-76
2023/01/21 00:03:43;;;;;;;338.80;106.73;;;;;;;6.36;99.03;99153.75;335346;29;3025;-76
2023/01/21 00:03:54;;;;;;;336.92;106.15;;;;;;;6.34;99.16;99157.25;335460;29;1346;-75
2023/01/21 00:04:04;;;;;;;342.67;108.73;;;;;;;6.36;98.91;99151.16;333179;29;4380;-76
2023/01/21 00:04:15;;;;;;;345.35;109.28;;;;;;;6.32;99.09;99153.84;329070;29;2819;-76
2023/01/21 00:04:25;;;;;;;347.40;110.03;;;;;;;6.36;99.41;99153.75;325794;29;2935;-76
2023/01/21 00:04:36;;;;;;;344.90;109.95;;;;;;;6.33;99.64;99152.97;324623;30;2386;-76
2023/01/21 00:04:47;;;;;;;347.42;108.90;;;;;;;6.33;99.25;99150.38;323163;30;2945;-76
2023/01/21 00:04:57;;;;;;;342.63;105.88;;;;;;;6.31;99.38;99149.56;320387;30;3632;-76
2023/01/21 00:05:08;;;;;;;342.80;106.00;;;;;;;6.35;99.74;99155.50;318982;30;4136;-77
2023/01/21 00:05:18;;;;;;;342.02;106.10;;;;;;;6.35;98.93;99152.91;321382;30;3076;-76
2023/01/21 00:05:29;;;;;;;347.45;109.82;;;;;;;6.36;99.22;99149.41;322891;30;2861;-76
2023/01/21 00:05:39;;;;;;;347.80;111.90;;;;;;;6.36;99.21;99158.97;323869;30;2969;-77
2023/01/21 00:05:50;;;;;;;345.40;111.73;;;;;;;6.34;99.23;99153.81;323236;30;2009;-77
2023/01/21 00:06:01;;;;;;;339.53;106.60;;;;;;;6.33;99.26;99163.34;318914;30;4064;-81
2023/01/21 00:06:13;;;;;;;340.98;105.65;;;;;;;6.34;99.29;99153.81;318911;30;2777;-76
2023/01/21 00:06:24;;;;;;;346.02;108.85;;;;;;;6.33;99.47;99155.56;317344;30;2472;-76
2023/01/21 00:06:35;;;;;;;347.03;109.77;;;;;;;6.36;99.20;99161.56;318077;30;2993;-76
2023/01/21 00:06:46;;;;;;;347.13;109.82;;;;;;;6.32;99.39;99153.84;316370;31;905;-78
2023/01/21 00:06:56;;;;;;;344.48;108.47;;;;;;;6.30;99.68;99153.06;318924;30;3753;-77
2023/01/21 00:07:07;;;;;;;344.27;110.20;;;;;;;6.30;99.35;99160.84;316167;30;4349;-80
2023/01/21 00:07:17;;;;;;;345.65;108.80;;;;;;;6.32;99.70;99164.25;314866;31;1580;-75
2023/01/21 00:07:28;;;;;;;349.53;111.33;;;;;;;6.31;99.88;99159.94;312012;31;3471;-76
2023/01/21 00:07:38;;;;;;;346.80;107.75;;;;;;;6.32;99.48;99159.06;311687;31;3082;-77
2023/01/21 00:07:49;;;;;;;346.63;111.07;;;;;;;6.34;99.83;99167.66;309623;31;1313;-76
2023/01/21 00:07:59;;;;;;;343.45;107.57;;;;;;;6.34;99.80;99166.81;305682;32;4670;-76
2023/01/21 00:08:10;;;;;;;348.63;109.17;;;;;;;6.32;99.76;99164.25;308601;31;3299;-76
2023/01/21 00:08:20;;;;;;;349.10;111.45;;;;;;;6.33;99.42;99160.75;306683;32;2481;-77
2023/01/21 00:08:31;;;;;;;351.57;115.43;;;;;;;6.33;99.37;99165.97;305606;32;815;-76
2023/01/21 00:08:41;;;;;;;346.50;113.82;;;;;;;6.31;99.36;99159.94;301923;32;3760;-76
2023/01/21 00:08:51;;;;;;;344.07;112.53;;;;;;;6.32;99.51;99164.25;299780;32;4153;-73
2023/01/21 00:09:02;;;;;;;341.08;109.57;;;;;;;6.32;99.02;99166.00;298555;32;4667;-75
2023/01/21 00:09:13;;;;;;;342.95;111.20;;;;;;;6.31;99.59;99162.56;294431;33;3739;-77
2023/01/21 00:09:24;;;;;;;343.23;108.28;;;;;;;6.28;99.42;99157.44;295410;33;4668;-77
2023/01/21 00:09:34;;;;;;;343.70;106.83;;;;;;;6.29;99.38;99158.31;295946;33;4371;-75
2023/01/21 00:09:45;;;;;;;340.35;105.18;;;;;;;6.28;99.42;99149.66;293793;33;1029;-76
2023/01/21 00:09:55;;;;;;;339.00;105.80;;;;;;;6.29;99.17;99163.50;292806;33;3922;-75
2023/01/21 00:10:06;;;;;;;340.63;108.55;;;;;;;6.28;99.55;99162.66;294510;32;4927;-75
2023/01/21 00:10:17;;;;;;;341.07;108.47;;;;;;;6.28;99.71;99157.44;297249;33;850;-76
2023/01/21 00:10:27;;;;;;;342.45;109.60;;;;;;;6.26;99.49;99151.44;294424;33;3126;-76
2023/01/21 00:10:38;;;;;;;345.27;110.43;;;;;;;6.26;99.12;99167.03;289495;33;3755;-76
2023/01/21 00:10:48;;;;;;;347.53;111.30;;;;;;;6.25;99.39;99156.69;288029;34;3299;-75
2023/01/21 00:11:25;;;;;;;350.93;114.50;;;;;;;6.24;99.10;99166.22;286078;34;5457;-77
2023/01/21 00:11:35;;;;;;;343.48;108.88;;;;;;;6.19;99.63;99157.72;281686;34;7195;-77
2023/01/21 00:11:46;;;;;;;340.02;107.53;;;;;;;6.23;99.31;99163.69;280040;35;1197;-76
2023/01/21 00:11:57;;;;;;;338.90;108.43;;;;;;;6.22;99.45;99160.22;273550;35;6223;-75
2023/01/21 00:12:07;;;;;;;338.95;107.28;;;;;;;6.23;99.43;99154.13;277386;35;5970;-76
2023/01/21 00:12:17;;;;;;;342.20;109.38;;;;;;;6.24;99.00;99162.78;281712;35;1386;-76
2023/01/21 00:12:28;;;;;;;342.87;108.03;;;;;;;6.20;99.55;99151.63;278673;35;5213;-76
2023/01/21 00:12:38;;;;;;;341.07;106.53;;;;;;;6.22;99.61;99161.97;278108;34;4451;-75
2023/01/21 00:12:49;;;;;;;338.23;103.27;;;;;;;6.22;99.80;99157.63;279294;35;4533;-75
2023/01/21 00:13:00;;;;;;;339.65;106.43;;;;;;;6.22;99.63;99157.63;274245;35;4698;-75
2023/01/21 00:13:11;;;;;;;342.00;108.88;;;;;;;6.22;99.39;99162.81;272737;35;7300;-76
2023/01/21 00:13:21;;;;;;;344.37;111.77;;;;;;;6.23;99.62;99154.13;270102;36;9384;-76
2023/01/21 00:13:32;;;;;;;343.10;109.60;;;;;;;6.23;99.25;99158.47;271673;36;3285;-76
2023/01/21 00:15:06;;;;;;;333.07;104.04;;;;;;;6.24;99.30;99166.22;2492225;27;20481;-76
2023/01/21 00:15:16;;;;;;;341.25;108.38;;;;;;;6.22;98.78;99157.63;351602;28;1542;-76
2023/01/21 00:15:28;;;;;;;340.10;108.27;;;;;;;6.22;99.30;99160.22;348889;28;2956;-76
2023/01/21 00:15:38;;;;;;;338.10;104.85;;;;;;;6.21;99.03;99160.28;347509;28;1286;-77
2023/01/21 00:15:49;;;;;;;335.90;103.93;;;;;;;6.23;98.92;99161.09;346876;28;4137;-76
2023/01/21 00:15:59;;;;;;;339.23;105.60;;;;;;;6.22;99.29;99157.63;347088;28;1307;-77
2023/01/21 00:16:09;;;;;;;341.90;109.90;;;;;;;6.22;99.19;99157.63;343484;28;4250;-76
2023/01/21 00:16:20;;;;;;;344.40;112.10;;;;;;;6.24;99.24;99157.59;347581;28;2946;-78
2023/01/21 00:16:30;;;;;;;343.83;112.60;;;;;;;6.23;98.98;99156.75;346400;28;4115;-76
2023/01/21 00:16:41;;;;;;;340.85;108.18;;;;;;;6.23;99.34;99159.34;348785;28;2892;-75
2023/01/21 00:16:51;;;;;;;339.73;105.60;;;;;;;6.25;99.16;99159.28;344558;28;4718;-75
2023/01/21 00:17:04;;;;;;;340.10;104.80;;;;;;;6.22;99.32;99160.22;347550;28;1745;-77
2023/01/21 00:17:15;;;;;;;340.38;106.53;;;;;;;6.24;99.05;99158.44;345156;28;4927;-76
2023/01/21 00:17:25;;;;;;;339.98;106.18;;;;;;;6.25;99.08;99160.13;346136;28;3796;-76
2023/01/21 00:17:36;;;;;;;337.73;105.77;;;;;;;6.25;99.00;99161.88;343999;28;4021;-76
2023/01/21 00:17:46;;;;;;;337.55;104.13;;;;;;;6.24;99.31;99166.22;346611;28;3582;-76
2023/01/21 00:17:57;;;;;;;338.53;104.30;;;;;;;6.23;99.21;99163.69;349804;28;3124;-75
2023/01/21 00:18:07;;;;;;;338.80;103.68;;;;;;;6.22;98.96;99165.44;345770;28;3633;-77
2023/01/21 00:18:17;;;;;;;340.03;106.37;;;;;;;6.22;99.45;99162.81;346806;28;2813;-76
2023/01/21 00:18:28;;;;;;;339.60;105.25;;;;;;;6.22;99.18;99162.81;347157;28;3811;-77
2023/01/21 00:18:38;;;;;;;338.63;105.17;;;;;;;6.24;99.18;99166.22;348235;28;3003;-77
2023/01/21 00:18:48;;;;;;;336.53;103.93;;;;;;;6.23;99.21;99159.34;349820;28;3665;-74
2023/01/21 00:18:59;;;;;;;338.27;105.88;;;;;;;6.26;99.09;99168.78;348283;28;4793;-76
2023/01/21 00:19:09;;;;;;;339.87;106.57;;;;;;;6.26;99.67;99164.44;346731;28;3612;-76
2023/01/21 00:19:20;;;;;;;341.92;109.65;;;;;;;6.25;99.47;99169.69;342743;28;2723;-75
2023/01/21 00:19:30;;;;;;;340.97;109.23;;;;;;;6.27;99.04;99173.09;341886;28;3656;-74
2023/01/21 00:19:41;;;;;;;339.98;108.10;;;;;;;6.26;99.01;99169.63;339549;28;3203;-76
2023/01/21 00:19:51;;;;;;;341.38;106.43;;;;;;;6.28;98.55;99169.59;343423;28;1345;-76
2023/01/21 00:20:02;;;;;;;343.47;108.37;;;;;;;6.26;99.02;99168.78;342225;28;3580;-75
2023/01/21 00:20:13;;;;;;;347.88;110.90;;;;;;;6.26;99.20;99172.22;345976;28;1430;-75
2023/01/21 00:20:23;;;;;;;344.95;110.07;;;;;;;6.27;99.19;99168.75;342043;28;3666;-76
2023/01/21 00:20:33;;;;;;;342.37;108.07;;;;;;;6.27;98.87;99173.94;345837;28;3041;-75
2023/01/21 00:20:44;;;;;;;336.20;104.47;;;;;;;6.27;98.77;99173.94;344646;28;4179;-76
2023/01/21 00:20:56;;;;;;;336.67;104.70;;;;;;;6.27;98.71;99176.53;346209;28;1209;-76
2023/01/21 00:21:06;;;;;;;337.27;103.68;;;;;;;6.28;98.52;99175.63;343964;28;3710;-76
2023/01/21 00:21:17;;;;;;;338.08;103.63;;;;;;;6.28;98.82;99175.63;342957;28;3518;-76
2023/01/21 00:21:27;;;;;;;338.50;104.67;;;;;;;6.27;98.52;99176.53;339656;28;4395;-75
2023/01/21 00:21:38;;;;;;;337.20;103.68;;;;;;;6.29;98.60;99184.28;343565;28;800;-76
2023/01/21 00:21:48;;;;;;;338.10;104.97;;;;;;;6.27;98.78;99171.34;345626;28;1148;-76
2023/01/21 00:21:58;;;;;;;338.47;104.87;;;;;;;6.27;99.04;99176.53;345106;28;1234;-76
2023/01/21 00:22:09;;;;;;;341.83;108.30;;;;;;;6.26;98.62;99174.84;343178;28;1237;-76
2023/01/21 00:22:19;;;;;;;343.40;110.83;;;;;;;6.28;98.40;99177.38;344662;28;790;-76
2023/01/21 00:22:30;;;;;;;342.80;111.07;;;;;;;6.29;98.61;99168.69;341738;28;1524;-76
2023/01/21 00:22:40;;;;;;;339.60;108.97;;;;;;;6.28;98.29;99180.84;343150;28;2048;-76
2023/01/21 00:22:52;;;;;;;337.50;106.35;;;;;;;6.28;98.11;99175.63;345911;28;854;-76
2023/01/21 00:23:03;;;;;;;338.08;104.93;;;;;;;6.28;97.96;99178.25;344136;28;1311;-75
2023/01/21 00:23:14;;;;;;;339.73;104.38;;;;;;;6.27;98.16;99170.50;343570;28;1341;-76
2023/01/21 00:23:24;;;;;;;340.50;104.82;;;;;;;6.28;97.94;99173.03;343213;28;1343;-77
2023/01/21 00:23:35;;;;;;;339.67;106.03;;;;;;;6.28;98.13;99177.38;337740;29;1243;-76
2023/01/21 00:23:47;;;;;;;337.63;103.85;;;;;;;6.28;97.82;99178.25;339492;29;1582;-77
2023/01/21 00:23:57;;;;;;;338.80;103.45;;;;;;;6.28;97.96;99169.59;339094;29;1345;-75
2023/01/21 00:24:08;;;;;;;339.15;104.60;;;;;;;6.29;98.09;99179.94;340374;29;1394;-75
2023/01/21 00:24:21;;;;;;;337.13;103.47;;;;;;;6.29;97.77;99173.88;339294;29;935;-75
2023/01/21 00:24:31;;;;;;;338.80;104.42;;;;;;;6.28;98.34;99175.63;338148;29;1211;-75
2023/01/21 00:24:42;;;;;;;338.80;103.87;;;;;;;6.27;97.80;99171.34;339545;29;1053;-75
2023/01/21 00:24:52;;;;;;;337.90;103.43;;;;;;;6.26;98.04;99172.22;338101;29;1560;-75
2023/01/21 00:25:06;;;;;;;336.87;103.60;;;;;;;6.26;98.32;99173.97;337498;29;1487;-75
2023/01/21 00:25:16;;;;;;;339.77;104.18;;;;;;;6.25;97.98;99173.13;332985;29;1457;-76
2023/01/21 00:25:27;;;;;;;339.70;105.37;;;;;;;6.25;98.18;99173.13;333007;29;1872;-77
2023/01/21 00:25:37;;;;;;;340.50;106.95;;;;;;;6.25;98.54;99175.72;335299;29;1313;-75
2023/01/21 00:25:48;;;;;;;341.80;109.90;;;;;;;6.25;98.07;99173.13;334691;29;1882;-75
2023/01/21 00:26:02;;;;;;;342.67;108.85;;;;;;;6.25;98.19;99175.72;335954;29;2156;-76
2023/01/21 00:26:12;;;;;;;340.20;104.95;;;;;;;6.24;98.54;99181.81;332777;29;1752;-76
2023/01/21 00:26:26;;;;;;;338.55;105.05;;;;;;;6.24;98.42;99176.63;333476;29;1534;-75
2023/01/21 00:26:36;;;;;;;337.35;104.90;;;;;;;6.22;98.84;99165.44;330144;29;759;-74
2023/01/21 00:26:47;;;;;;;338.15;105.32;;;;;;;6.21;98.98;99171.53;332419;29;1505;-75
2023/01/21 00:26:57;;;;;;;340.50;107.00;;;;;;;6.22;98.85;99172.38;332109;29;1820;-76
2023/01/21 00:27:08;;;;;;;341.73;108.63;;;;;;;6.24;99.08;99180.97;331589;29;843;-76
2023/01/21 00:27:18;;;;;;;340.50;106.13;;;;;;;6.22;99.00;99175.81;330581;29;1966;-76
2023/01/21 00:27:28;;;;;;;335.70;103.33;;;;;;;6.22;98.64;99173.22;328844;29;1897;-76
2023/01/21 00:27:39;;;;;;;334.93;102.80;;;;;;;6.20;98.74;99168.97;325330;30;1239;-76
2023/01/21 00:27:49;;;;;;;335.50;104.13;;;;;;;6.21;98.90;99175.88;327228;30;2352;-76
2023/01/21 00:28:00;;;;;;;337.27;105.15;;;;;;;6.20;98.99;99179.38;326770;30;2638;-75
2023/01/21 00:28:12;;;;;;;340.73;108.10;;;;;;;6.17;99.01;99175.09;326174;30;2848;-75
2023/01/21 00:28:23;;;;;;;345.00;110.35;;;;;;;6.17;98.78;99180.31;322496;30;1336;-75
2023/01/21 00:28:34;;;;;;;343.98;110.57;;;;;;;6.17;99.06;99180.31;321003;30;1949;-75
2023/01/21 00:28:45;;;;;;;340.40;107.84;;;;;;;6.17;99.00;99175.09;318044;30;2282;-75
2023/01/21 00:28:55;;;;;;;337.03;105.50;;;;;;;6.17;99.03;99179.44;317184;30;1756;-76
2023/01/21 00:29:06;;;;;;;337.65;104.82;;;;;;;6.17;98.68;99167.31;318456;31;841;-76
2023/01/21 00:29:16;;;;;;;340.80;105.60;;;;;;;6.18;98.74;99175.97;313704;31;2534;-75
2023/01/21 00:29:27;;;;;;;341.40;104.55;;;;;;;6.17;98.88;99175.09;313033;30;2663;-75
2023/01/21 00:29:37;;;;;;;342.60;105.53;;;;;;;6.17;99.02;99182.06;309827;31;3739;-75
2023/01/21 00:29:48;;;;;;;342.38;106.82;;;;;;;6.17;98.85;99180.31;314925;31;2649;-75
2023/01/21 00:30:03;;;;;;;344.63;108.70;;;;;;;6.14;99.23;99183.00;313462;31;2879;-76
2023/01/21 00:30:13;;;;;;;341.98;106.55;;;;;;;6.14;99.17;99176.94;312982;31;3511;-76
2023/01/21 00:30:23;;;;;;;338.92;106.43;;;;;;;6.14;99.21;99183.00;312962;31;1066;-76
2023/01/21 00:30:35;;;;;;;337.50;106.43;;;;;;;6.11;99.01;99177.88;314566;31;3720;-75
2023/01/21 00:30:45;;;;;;;338.92;105.80;;;;;;;6.10;99.24;99178.78;310385;31;2911;-75
2023/01/21 00:30:59;;;;;;;339.53;104.73;;;;;;;6.09;98.98;99171.88;312459;31;2087;-75
2023/01/21 00:31:13;;;;;;;343.70;105.95;;;;;;;6.11;99.16;99177.03;313206;31;2539;-76
2023/01/21 00:31:23;;;;;;;345.14;107.32;;;;;;;6.11;98.99;99179.63;310090;31;1399;-76
2023/01/21 00:31:33;;;;;;;341.97;106.23;;;;;;;6.10;99.36;99180.53;308053;31;4363;-75
2023/01/21 00:31:44;;;;;;;339.20;106.17;;;;;;;6.07;99.25;99180.63;307202;31;4710;-75
2023/01/21 00:31:54;;;;;;;338.05;105.10;;;;;;;6.07;99.17;99176.28;306233;32;3202;-75
2023/01/21 00:32:04;;;;;;;337.80;102.63;;;;;;;6.07;99.05;99178.88;302258;32;1321;-75
2023/01/21 00:32:15;;;;;;;338.05;102.47;;;;;;;6.08;98.98;99172.78;302436;32;5281;-75
2023/01/21 00:32:25;;;;;;;339.80;105.23;;;;;;;6.06;99.00;99174.59;300738;32;4371;-75
2023/01/21 00:32:36;;;;;;;339.92;108.13;;;;;;;6.06;99.09;99174.59;297064;32;4804;-75
2023/01/21 00:32:47;;;;;;;340.03;108.33;;;;;;;6.04;99.40;99173.78;299153;32;4843;-76
2023/01/21 00:32:58;;;;;;;340.80;106.90;;;;;;;6.05;99.34;99174.66;296700;32;3452;-76
2023/01/21 00:33:08;;;;;;;340.53;105.33;;;;;;;6.05;99.16;99182.44;297894;33;3107;-76
2023/01/21 00:33:18;;;;;;;339.23;105.22;;;;;;;6.04;99.23;99179.00;291252;33;3293;-76
2023/01/21 00:33:30;;;;;;;339.17;106.10;;;;;;;6.05;99.48;99175.50;289054;33;4678;-75
2023/01/21 00:33:43;;;;;;;338.98;107.35;;;;;;;6.07;99.39;99178.88;289216;33;5340;-76
2023/01/21 00:33:53;;;;;;;343.27;110.78;;;;;;;6.07;99.20;99183.22;287312;34;1965;-76
2023/01/21 00:34:04;;;;;;;343.77;111.27;;;;;;;6.07;99.34;99178.03;291570;33;6091;-76
2023/01/21 00:34:14;;;;;;;344.45;110.32;;;;;;;6.08;99.50;99179.72;290758;33;7148;-77
2023/01/21 00:34:25;;;;;;;341.80;108.17;;;;;;;6.08;99.51;99180.56;288349;34;6659;-76
2023/01/21 00:34:35;;;;;;;347.80;107.55;;;;;;;6.08;99.41;99177.13;283875;34;3641;-76
2023/01/21 00:34:45;;;;;;;349.63;108.90;;;;;;;6.07;99.20;99178.03;285426;34;6175;-75
2023/01/21 00:34:56;;;;;;;350.55;110.68;;;;;;;6.07;99.14;99178.88;284805;34;6727;-75
2023/01/21 00:35:10;;;;;;;344.60;110.33;;;;;;;6.07;99.38;99183.22;286700;34;1287;-75
2023/01/21 00:35:20;;;;;;;340.45;107.20;;;;;;;6.06;99.20;99174.59;280881;35;869;-77
2023/01/21 00:35:31;;;;;;;338.55;106.18;;;;;;;6.06;98.94;99172.00;277218;34;4388;-76
2023/01/21 00:35:41;;;;;;;337.67;104.70;;;;;;;6.07;98.83;99172.81;277711;35;6998;-76
2023/01/21 00:37:46;;;;;;;330.04;101.72;;;;;;;6.04;98.61;99168.59;2488274;27;20265;-76
2023/01/21 00:37:56;;;;;;;341.70;107.33;;;;;;;6.04;98.57;99171.19;353028;28;1240;-76
2023/01/21 00:38:07;;;;;;;342.67;107.18;;;;;;;6.04;98.99;99179.00;349301;28;2767;-76
2023/01/21 00:38:17;;;;;;;344.47;109.40;;;;;;;6.02;98.67;99169.53;349283;28;1308;-77
2023/01/21 00:38:28;;;;;;;338.17;104.35;;;;;;;6.01;98.81;99171.28;345432;28;3880;-76
2023/01/21 00:38:38;;;;;;;338.43;103.83;;;;;;;5.99;98.98;99171.34;345250;28;2770;-77
2023/01/21 00:38:49;;;;;;;337.92;103.78;;;;;;;6.00;98.73;99173.03;347739;28;796;-77
2023/01/21 00:38:59;;;;;;;339.83;107.73;;;;;;;5.99;99.12;99176.53;347668;28;910;-77
2023/01/21 00:39:10;;;;;;;341.17;109.03;;;;;;;5.99;98.88;99173.09;349038;28;3246;-76
2023/01/21 00:39:20;;;;;;;338.48;104.60;;;;;;;5.98;99.06;99171.38;348744;28;3537;-76
2023/01/21 00:39:31;;;;;;;340.30;107.57;;;;;;;5.98;99.11;99168.78;343333;28;4013;-76
2023/01/21 00:39:41;;;;;;;339.92;107.95;;;;;;;5.98;98.77;99174.81;345560;28;1235;-76
2023/01/21 00:39:52;;;;;;;340.73;108.70;;;;;;;5.95;98.87;99168.88;346087;28;1406;-76
2023/01/21 00:40:04;;;;;;;340.83;106.83;;;;;;;5.99;99.13;99175.69;345863;28;2890;-77
2023/01/21 00:40:16;;;;;;;339.67;104.18;;;;;;;5.99;99.06;99176.53;347536;28;899;-77
2023/01/21 00:40:26;;;;;;;338.83;102.70;;;;;;;5.97;98.89;99172.28;346752;28;4540;-78
2023/01/21 00:40:36;;;;;;;337.73;101.78;;;;;;;5.96;98.95;99171.41;348013;28;2728;-77
2023/01/21 00:40:47;;;;;;;341.17;106.13;;;;;;;5.98;98.95;99173.97;347653;28;844;-76
2023/01/21 00:41:01;;;;;;;343.40;108.43;;;;;;;5.98;99.23;99176.56;347466;28;1193;-76
2023/01/21 00:41:12;;;;;;;344.40;106.88;;;;;;;6.00;99.02;99179.97;349021;28;1310;-76
2023/01/21 00:41:25;;;;;;;339.33;102.15;;;;;;;5.98;98.90;99174.81;349016;28;1188;-76
2023/01/21 00:41:36;;;;;;;338.77;103.55;;;;;;;5.96;99.04;99176.63;348619;28;1051;-76
2023/01/21 00:41:46;;;;;;;338.88;104.25;;;;;;;5.96;99.15;99181.81;347278;28;1486;-76
2023/01/21 00:41:57;;;;;;;338.87;102.70;;;;;;;5.97;99.10;99182.66;348260;28;1378;-76
2023/01/21 00:42:10;;;;;;;337.38;99.40;;;;;;;5.98;99.22;99186.97;348775;28;1682;-77
2023/01/21 00:42:20;;;;;;;336.08;100.55;;;;;;;5.96;99.45;99180.97;348634;28;1042;-76
2023/01/21 00:42:31;;;;;;;335.00;100.87;;;;;;;5.97;98.89;99180.06;345471;28;1595;-75
2023/01/21 00:42:41;;;;;;;335.88;102.38;;;;;;;5.97;99.17;99182.66;346785;28;806;-76
2023/01/21 00:42:51;;;;;;;336.07;102.90;;;;;;;5.97;98.93;99187.84;348662;28;860;-76
2023/01/21 00:43:02;;;;;;;336.55;103.35;;;;;;;5.96;99.09;99179.22;345878;28;1251;-76
2023/01/21 00:43:12;;;;;;;336.50;101.93;;;;;;;5.97;98.96;99185.25;344906;28;1122;-76
2023/01/21 00:43:23;;;;;;;335.88;100.82;;;;;;;5.96;99.02;99184.41;345797;28;1236;-76
2023/01/21 00:43:33;;;;;;;336.43;100.37;;;;;;;5.97;99.01;99185.25;346028;28;796;-76
2023/01/21 00:43:44;;;;;;;338.08;100.57;;;;;;;5.95;99.23;99185.31;345692;28;1504;-76
2023/01/21 00:43:54;;;;;;;338.90;101.40;;;;;;;5.93;99.01;99187.09;344388;28;1058;-77
2023/01/21 00:44:04;;;;;;;338.95;102.28;;;;;;;5.93;98.91;99183.66;343237;28;1327;-75
2023/01/21 00:44:15;;;;;;;338.63;104.37;;;;;;;5.93;98.89;99184.50;336695;29;904;-75
2023/01/21 00:44:25;;;;;;;338.17;103.32;;;;;;;5.93;98.96;99186.25;339962;29;1273;-76
2023/01/21 00:44:39;;;;;;;335.53;102.20;;;;;;;5.92;99.35;99179.34;339305;29;982;-75
2023/01/21 00:44:49;;;;;;;333.65;99.90;;;;;;;5.91;98.87;99188.88;340540;29;1150;-75
2023/01/21 00:44:59;;;;;;;334.47;98.60;;;;;;;5.92;98.73;99187.97;338389;29;1210;-75
2023/01/21 00:45:10;;;;;;;335.57;98.60;;;;;;;5.89;99.27;99182.88;337290;29;940;-75
2023/01/21 00:45:20;;;;;;;335.87;99.00;;;;;;;5.88;99.63;99183.75;339184;29;897;-77
2023/01/21 00:45:31;;;;;;;335.05;100.43;;;;;;;5.88;99.42;99185.47;337822;29;1381;-76
2023/01/21 00:45:41;;;;;;;333.93;100.77;;;;;;;5.87;99.61;99178.59;339473;29;1408;-76
2023/01/21 00:45:51;;;;;;;333.87;100.37;;;;;;;5.87;99.75;99183.78;337664;29;1219;-76
2023/01/21 00:46:02;;;;;;;334.23;100.05;;;;;;;5.87;99.56;99181.19;334120;29;767;-76
2023/01/21 00:46:12;;;;;;;336.90;103.53;;;;;;;5.89;100.00;99185.47;338269;29;1146;-76
2023/01/21 00:46:22;;;;;;;336.25;103.45;;;;;;;5.89;99.56;99175.09;336695;29;1508;-76
2023/01/21 00:46:33;;;;;;;336.63;103.93;;;;;;;5.91;99.73;99185.44;334802;29;1396;-76
2023/01/21 00:46:43;;;;;;;337.88;102.63;;;;;;;5.91;99.70;99182.84;333947;29;1905;-76
2023/01/21 00:46:54;;;;;;;338.70;103.03;;;;;;;5.91;99.62;99177.63;332468;29;1192;-77
2023/01/21 00:47:04;;;;;;;337.00;102.15;;;;;;;5.92;99.42;99181.94;333809;29;1436;-75
2023/01/21 00:47:15;;;;;;;336.73;102.70;;;;;;;5.89;99.74;99182.88;333578;29;1388;-76
2023/01/21 00:47:25;;;;;;;336.48;102.10;;;;;;;5.91;99.25;99181.09;330699;29;1192;-76
2023/01/21 00:47:35;;;;;;;338.33;102.67;;;;;;;5.89;99.48;99189.81;327756;30;1538;-76
2023/01/21 00:47:46;;;;;;;336.60;102.70;;;;;;;5.89;99.96;99184.63;326707;30;879;-76
2023/01/21 00:47:56;;;;;;;338.90;104.37;;;;;;;5.85;99.55;99182.97;327105;29;1811;-76
2023/01/21 00:48:07;;;;;;;338.00;103.78;;;;;;;5.87;99.74;99182.03;327764;29;1594;-75
2023/01/21 00:48:17;;;;;;;338.73;103.37;;;;;;;5.87;100.00;99181.19;326605;30;1290;-75
2023/01/21 00:48:27;;;;;;;338.33;101.53;;;;;;;5.87;99.62;99183.78;328212;30;1853;-75
2023/01/21 00:48:39;;;;;;;336.20;101.15;;;;;;;5.88;99.89;99185.47;327673;29;2141;-75
2023/01/21 00:48:49;;;;;;;337.23;101.68;;;;;;;5.87;99.67;99191.56;324318;30;4545;-76
2023/01/21 00:49:00;;;;;;;335.02;100.80;;;;;;;5.86;99.57;99189.88;327802;30;3079;-76
2023/01/21 00:49:10;;;;;;;338.33;101.93;;;;;;;5.86;100.00;99182.94;326788;30;1268;-76
2023/01/21 00:49:20;;;;;;;336.33;101.85;;;;;;;5.85;99.93;99188.16;325757;30;2933;-76
2023/01/21 00:49:31;;;;;;;336.27;102.00;;;;;;;5.85;99.83;99183.81;325149;30;851;-76
2023/01/21 00:49:41;;;;;;;331.50;98.65;;;;;;;5.84;100.00;99186.47;324081;30;3971;-75
2023/01/21 00:49:52;;;;;;;333.13;100.77;;;;;;;5.83;100.00;99185.63;323594;30;3376;-76
2023/01/21 00:50:03;;;;;;;335.60;102.28;;;;;;;5.84;99.98;99183.88;327854;30;3269;-76
2023/01/21 00:50:13;;;;;;;340.05;103.28;;;;;;;5.83;100.00;99184.75;325553;30;2237;-76
2023/01/21 00:50:23;;;;;;;340.93;103.83;;;;;;;5.82;100.00;99183.91;321384;30;2874;-76
2023/01/21 00:50:34;;;;;;;338.42;102.18;;;;;;;5.83;100.00;99179.56;319755;30;868;-77
2023/01/21 00:50:44;;;;;;;337.03;103.73;;;;;;;5.83;100.00;99184.75;324475;30;3899;-76
2023/01/21 00:50:57;;;;;;;334.53;102.63;;;;;;;5.79;100.00;99180.56;323225;30;2593;-76
2023/01/21 00:51:08;;;;;;;336.55;102.78;;;;;;;5.82;100.00;99188.25;319937;30;2003;-76
2023/01/21 00:51:18;;;;;;;336.03;100.67;;;;;;;5.82;100.00;99183.06;319670;30;4799;-77
2023/01/21 00:51:29;;;;;;;336.40;100.37;;;;;;;5.81;100.00;99179.63;322011;30;1412;-77
2023/01/21 00:51:39;;;;;;;332.77;97.87;;;;;;;5.81;100.00;99181.38;317728;30;4127;-76
2023/01/21 00:51:50;;;;;;;333.98;98.22;;;;;;;5.81;100.00;99177.03;318126;30;2874;-76
2023/01/21 00:52:00;;;;;;;336.70;97.10;;;;;;;5.80;100.00;99179.66;315227;31;1204;-76
2023/01/21 00:52:11;;;;;;;339.00;96.38;;;;;;;5.82;100.00;99177.88;316975;31;2883;-76
2023/01/21 00:52:21;;;;;;;338.50;97.87;;;;;;;5.83;100.00;99179.56;312599;31;3197;-76
2023/01/21 00:52:31;;;;;;;334.60;100.67;;;;;;;5.84;100.00;99181.28;309686;31;1340;-76
2023/01/21 00:52:42;;;;;;;334.53;100.60;;;;;;;5.83;100.00;99179.56;305662;31;4004;-76
2023/01/21 00:52:53;;;;;;;333.42;98.70;;;;;;;5.81;99.91;99174.41;307115;32;3290;-76
2023/01/21 00:53:03;;;;;;;334.50;98.75;;;;;;;5.80;100.00;99179.66;305297;32;1743;-76
2023/01/21 00:53:14;;;;;;;334.65;97.85;;;;;;;5.79;100.00;99173.63;304822;32;3429;-77
2023/01/21 00:53:25;;;;;;;335.70;99.97;;;;;;;5.80;100.00;99177.06;304174;32;2349;-77
2023/01/21 00:53:37;;;;;;;336.63;100.15;;;;;;;5.81;100.00;99177.03;301753;32;3879;-77